createdAt,value
2023-02-05T00:01:01.848Z,26.30
2023-02-05T00:03:28.512Z,17.90
2023-02-05T00:05:57.298Z,30.42
2023-02-05T00:08:25.144Z,28.17
2023-02-05T00:10:52.584Z,23.27
2023-02-05T00:13:19.657Z,19.27
2023-02-05T00:15:48.442Z,21.58
2023-02-05T00:18:15.136Z,23.67
2023-02-05T00:20:46.519Z,25.17
2023-02-05T00:23:13.207Z,29.77
2023-02-05T00:25:42.363Z,22.80
2023-02-05T00:28:09.044Z,23.33
2023-02-05T00:30:35.898Z,28.33
2023-02-05T00:33:02.822Z,24.30
2023-02-05T00:35:29.419Z,27.42
2023-02-05T00:37:56.313Z,29.08
2023-02-05T00:40:23.017Z,30.85
2023-02-05T00:42:49.700Z,30.45
2023-02-05T00:45:16.419Z,28.25
2023-02-05T00:47:45.483Z,23.88
2023-02-05T00:50:12.314Z,26.00
2023-02-05T00:52:41.176Z,32.33
2023-02-05T00:55:10.541Z,25.67
2023-02-05T00:57:37.334Z,26.95
2023-02-05T01:00:04.530Z,23.05
2023-02-05T01:02:33.609Z,27.35
2023-02-05T01:05:02.917Z,25.70
2023-02-05T01:07:29.800Z,26.35
2023-02-05T01:09:56.463Z,25.02
2023-02-05T01:12:23.080Z,18.65
2023-02-05T01:14:50.153Z,22.00
2023-02-05T01:17:16.977Z,26.35
2023-02-05T01:19:45.773Z,26.75
2023-02-05T01:22:12.726Z,26.05
2023-02-05T01:24:39.442Z,25.77
2023-02-05T01:27:06.148Z,22.08
2023-02-05T01:29:32.825Z,21.95
2023-02-05T01:32:01.747Z,19.60
2023-02-05T01:34:28.416Z,21.95
2023-02-05T01:36:55.222Z,21.33
2023-02-05T01:39:21.849Z,19.20
2023-02-05T01:41:48.600Z,18.70
2023-02-05T01:44:18.499Z,31.50
2023-02-05T01:46:47.338Z,22.25
2023-02-05T01:49:37.537Z,23.10
2023-02-05T01:52:11.811Z,27.95
2023-02-05T01:54:42.182Z,25.85
2023-02-05T01:57:16.861Z,29.85
2023-02-05T01:59:44.102Z,28.58
2023-02-05T02:02:10.916Z,21.05
2023-02-05T02:04:44.785Z,23.77
2023-02-05T02:07:14.837Z,32.17
2023-02-05T02:09:43.098Z,23.35
2023-02-05T02:12:12.950Z,25.92
2023-02-05T02:14:42.201Z,22.35
2023-02-05T02:17:10.179Z,19.77
2023-02-05T02:19:44.722Z,28.58
2023-02-05T02:22:33.193Z,21.95
2023-02-05T02:25:21.120Z,22.08
2023-02-05T02:27:55.955Z,36.53
2023-02-05T02:30:58.000Z,28.60
2023-02-05T02:33:43.474Z,21.73
2023-02-05T02:36:13.268Z,20.15
2023-02-05T02:38:44.646Z,24.63
2023-02-05T02:41:33.628Z,27.98
2023-02-05T02:44:18.928Z,26.25
2023-02-05T02:46:54.411Z,20.40
2023-02-05T02:49:41.118Z,17.13
2023-02-05T02:52:10.934Z,21.10
2023-02-05T02:54:41.165Z,25.38
2023-02-05T02:57:10.439Z,21.63
2023-02-05T02:59:40.074Z,25.00
2023-02-05T03:02:11.647Z,20.35
2023-02-05T03:04:43.444Z,21.48
2023-02-05T03:07:26.408Z,14.43
2023-02-05T03:10:17.726Z,20.65
2023-02-05T03:12:44.647Z,18.90
2023-02-05T03:15:11.986Z,18.20
2023-02-05T03:17:44.853Z,26.45
2023-02-05T03:20:21.723Z,19.00
2023-02-05T03:22:50.671Z,20.88
2023-02-05T03:25:22.183Z,16.02
2023-02-05T03:27:52.851Z,22.30
2023-02-05T03:30:24.365Z,15.98
2023-02-05T03:33:06.815Z,19.85
2023-02-05T03:35:58.546Z,20.48
2023-02-05T03:39:06.383Z,22.73
2023-02-05T03:41:56.129Z,16.45
2023-02-05T03:44:47.041Z,19.70
2023-02-05T03:47:31.222Z,19.27
2023-02-05T03:50:15.275Z,19.05
2023-02-05T03:55:23.910Z,20.08
2023-02-05T03:58:19.164Z,24.60
2023-02-05T04:00:46.082Z,24.70
2023-02-05T04:03:13.275Z,19.58
2023-02-05T04:05:39.958Z,16.63
2023-02-05T04:08:06.980Z,21.30
2023-02-05T04:10:33.705Z,24.33
2023-02-05T04:13:00.295Z,15.93
2023-02-05T04:15:29.177Z,16.02
2023-02-05T04:17:57.857Z,24.25
2023-02-05T04:20:24.589Z,20.27
2023-02-05T04:22:51.261Z,16.50
2023-02-05T04:25:20.617Z,15.68
2023-02-05T04:27:49.885Z,19.15
2023-02-05T04:30:19.199Z,21.23
2023-02-05T04:32:48.063Z,19.98
2023-02-05T04:35:14.800Z,18.63
2023-02-05T04:37:41.417Z,23.33
2023-02-05T04:40:09.253Z,21.55
2023-02-05T04:42:38.383Z,22.30
2023-02-05T04:45:07.807Z,34.60
2023-02-05T04:47:35.022Z,18.42
2023-02-05T04:50:01.730Z,28.95
2023-02-05T04:52:28.440Z,16.98
2023-02-05T04:54:57.263Z,19.77
2023-02-05T04:57:24.492Z,22.13
2023-02-05T04:59:51.144Z,18.02
2023-02-05T05:02:17.817Z,25.55
2023-02-05T05:04:44.508Z,20.27
2023-02-05T05:07:11.259Z,17.00
2023-02-05T05:09:38.004Z,15.45
2023-02-05T05:12:04.928Z,18.85
2023-02-05T05:14:34.044Z,19.95
2023-02-05T05:17:00.674Z,18.35
2023-02-05T05:19:27.344Z,16.92
2023-02-05T05:21:54.000Z,20.90
2023-02-05T05:24:20.705Z,19.05
2023-02-05T05:26:47.428Z,19.52
2023-02-05T05:29:14.599Z,23.25
2023-02-05T05:31:42.110Z,19.38
2023-02-05T05:34:08.840Z,23.42
2023-02-05T05:36:35.565Z,18.80
2023-02-05T05:39:22.206Z,28.40
2023-02-05T05:42:07.788Z,20.10
2023-02-05T05:44:34.489Z,13.50
2023-02-05T05:47:01.156Z,26.48
2023-02-05T05:49:27.922Z,21.55
2023-02-05T05:51:54.637Z,17.70
2023-02-05T05:54:23.742Z,17.27
2023-02-05T05:56:50.481Z,17.60
2023-02-05T05:59:17.119Z,19.23
2023-02-05T06:01:46.212Z,19.92
2023-02-05T06:04:15.358Z,17.98
2023-02-05T06:06:42.482Z,20.38
2023-02-05T06:09:09.304Z,24.45
2023-02-05T06:11:38.209Z,20.90
2023-02-05T06:14:04.960Z,21.02
2023-02-05T06:16:31.643Z,22.67
2023-02-05T06:18:58.387Z,20.55
2023-02-05T06:21:25.145Z,25.42
2023-02-05T06:23:51.792Z,19.17
2023-02-05T06:26:18.415Z,21.38
2023-02-05T06:28:45.046Z,19.13
2023-02-05T06:31:12.260Z,20.98
2023-02-05T06:33:38.983Z,23.10
2023-02-05T06:36:08.824Z,31.48
2023-02-05T06:38:37.729Z,22.45
2023-02-05T06:41:04.656Z,34.03
2023-02-05T06:43:31.371Z,23.10
2023-02-05T06:45:57.985Z,15.52
2023-02-05T06:48:26.960Z,21.33
2023-02-05T06:50:55.861Z,17.38
2023-02-05T06:53:22.510Z,18.15
2023-02-05T06:55:51.369Z,18.60
2023-02-05T06:58:18.014Z,16.25
2023-02-05T07:00:47.178Z,22.08
2023-02-05T07:03:13.792Z,23.48
2023-02-05T07:05:40.452Z,17.35
2023-02-05T07:08:09.585Z,25.58
2023-02-05T07:10:38.857Z,23.88
2023-02-05T07:13:06.066Z,19.52
2023-02-05T07:15:35.436Z,20.70
2023-02-05T07:18:02.248Z,19.40
2023-02-05T07:20:28.907Z,18.25
2023-02-05T07:22:55.602Z,22.13
2023-02-05T07:25:24.905Z,20.98
2023-02-05T07:27:51.623Z,25.58
2023-02-05T07:30:18.530Z,25.63
2023-02-05T07:32:45.379Z,27.08
2023-02-05T07:35:12.111Z,26.50
2023-02-05T07:37:39.437Z,34.50
2023-02-05T07:40:09.550Z,28.95
2023-02-05T07:42:36.329Z,27.17
2023-02-05T07:45:03.335Z,31.23
2023-02-05T07:47:30.015Z,33.35
2023-02-05T07:49:56.633Z,25.27
2023-02-05T07:52:25.841Z,27.60
2023-02-05T07:54:52.568Z,32.75
2023-02-05T07:57:19.266Z,30.48
2023-02-05T07:59:48.170Z,24.60
2023-02-05T08:02:14.848Z,23.80
2023-02-05T08:04:41.621Z,20.33
2023-02-05T08:07:09.039Z,28.83
2023-02-05T08:09:36.487Z,31.25
2023-02-05T08:12:03.314Z,32.08
2023-02-05T08:14:31.213Z,36.88
2023-02-05T08:16:58.868Z,33.22
2023-02-05T08:19:25.654Z,31.75
2023-02-05T08:21:55.027Z,23.73
2023-02-05T08:24:24.244Z,26.05
2023-02-05T08:26:50.960Z,32.00
2023-02-05T08:29:17.588Z,37.45
2023-02-05T08:31:44.474Z,28.77
2023-02-05T08:34:13.168Z,30.60
2023-02-05T08:36:42.278Z,27.13
2023-02-05T08:39:08.887Z,36.45
2023-02-05T08:41:39.887Z,32.33
2023-02-05T08:44:08.928Z,28.33
2023-02-05T08:46:48.681Z,26.75
2023-02-05T08:49:17.241Z,34.63
2023-02-05T08:51:44.024Z,33.20
2023-02-05T08:54:15.136Z,32.55
2023-02-05T08:56:44.288Z,36.35
2023-02-05T08:59:12.018Z,39.78
2023-02-05T09:01:40.898Z,38.90
2023-02-05T09:04:08.277Z,28.50
2023-02-05T09:06:35.252Z,33.33
2023-02-05T09:09:02.271Z,35.28
2023-02-05T09:11:30.403Z,31.08
2023-02-05T09:13:58.163Z,26.48
2023-02-05T09:16:27.479Z,35.20
2023-02-05T09:18:55.468Z,30.17
2023-02-05T09:21:22.270Z,39.13
2023-02-05T09:23:49.203Z,43.78
2023-02-05T09:26:18.634Z,32.75
2023-02-05T09:28:45.711Z,39.45
2023-02-05T09:31:17.285Z,33.85
2023-02-05T09:33:46.589Z,33.42
2023-02-05T09:36:15.837Z,36.70
2023-02-05T09:38:45.843Z,48.25
2023-02-05T09:41:15.492Z,36.40
2023-02-05T09:44:07.586Z,36.30
2023-02-05T09:47:06.384Z,39.25
2023-02-05T09:49:49.981Z,35.90
2023-02-05T09:52:30.267Z,31.63
2023-02-05T09:55:05.700Z,29.88
2023-02-05T09:57:36.305Z,36.25
2023-02-05T10:00:13.464Z,28.55
2023-02-05T10:02:53.379Z,32.08
2023-02-05T10:05:24.892Z,33.80
2023-02-05T10:08:17.642Z,32.90
2023-02-05T10:10:48.333Z,40.88
2023-02-05T10:13:29.655Z,32.03
2023-02-05T10:16:02.557Z,35.00
2023-02-05T10:18:56.153Z,35.57
2023-02-05T10:21:41.384Z,38.30
2023-02-05T10:24:41.138Z,44.90
2023-02-05T10:27:24.061Z,34.60
2023-02-05T10:30:02.637Z,35.40
2023-02-05T10:32:52.616Z,43.28
2023-02-05T10:35:44.315Z,39.10
2023-02-05T10:38:26.920Z,41.72
2023-02-05T10:41:00.223Z,39.47
2023-02-05T10:46:05.425Z,42.75
2023-02-05T10:48:44.935Z,44.22
2023-02-05T10:51:17.410Z,40.40
2023-02-05T10:53:44.233Z,44.63
2023-02-05T10:56:21.652Z,43.72
2023-02-05T10:59:02.264Z,43.05
2023-02-05T11:01:37.961Z,46.55
2023-02-05T11:04:07.404Z,45.17
2023-02-05T11:06:46.570Z,41.95
2023-02-05T11:09:31.240Z,51.25
2023-02-05T11:12:22.778Z,46.83
2023-02-05T11:14:59.964Z,42.25
2023-02-05T11:17:38.084Z,52.90
2023-02-05T11:20:24.368Z,50.05
2023-02-05T11:23:25.099Z,49.05
2023-02-05T11:25:57.656Z,44.10
2023-02-05T11:28:28.999Z,42.13
2023-02-05T11:31:17.602Z,40.28
2023-02-05T11:33:50.514Z,43.28
2023-02-05T11:36:23.374Z,45.67
2023-02-05T11:38:56.531Z,36.40
2023-02-05T11:41:30.999Z,42.78
2023-02-05T11:44:05.464Z,42.78
2023-02-05T11:46:43.200Z,33.35
2023-02-05T11:49:24.308Z,38.00
2023-02-05T11:51:55.262Z,43.33
2023-02-05T11:54:32.536Z,42.65
2023-02-05T11:57:09.181Z,32.38
2023-02-05T11:59:36.669Z,34.97
2023-02-05T12:02:26.216Z,32.95
2023-02-05T12:05:18.508Z,40.70
2023-02-05T12:08:01.518Z,35.08
2023-02-05T12:10:49.638Z,47.30
2023-02-05T12:13:38.109Z,39.53
2023-02-05T12:16:26.822Z,39.85
2023-02-05T12:19:11.140Z,37.28
2023-02-05T12:21:49.307Z,41.13
2023-02-05T12:24:18.938Z,45.33
2023-02-05T12:26:47.498Z,47.13
2023-02-05T12:29:40.762Z,44.13
2023-02-05T12:32:37.107Z,39.22
2023-02-05T12:35:35.457Z,42.88
2023-02-05T12:38:16.748Z,39.83
2023-02-05T12:41:04.400Z,45.47
2023-02-05T12:43:46.560Z,41.83
2023-02-05T12:46:42.780Z,35.10
2023-02-05T12:49:32.562Z,38.28
2023-02-05T12:52:24.716Z,38.63
2023-02-05T12:55:14.915Z,35.53
2023-02-05T12:57:46.749Z,35.50
2023-02-05T13:00:16.442Z,34.53
2023-02-05T13:03:19.061Z,31.33
2023-02-05T13:06:11.752Z,30.33
2023-02-05T13:08:52.953Z,28.50
2023-02-05T13:11:25.900Z,29.15
2023-02-05T13:13:58.888Z,31.17
2023-02-05T13:16:50.915Z,34.00
2023-02-05T13:19:29.365Z,30.10
2023-02-05T13:22:18.734Z,27.02
2023-02-05T13:25:24.691Z,28.90
2023-02-05T13:28:17.938Z,29.65
2023-02-05T13:30:50.572Z,36.13
2023-02-05T13:33:17.636Z,36.00
2023-02-05T13:35:52.204Z,40.08
2023-02-05T13:38:57.408Z,45.75
2023-02-05T13:41:46.036Z,36.60
2023-02-05T13:44:53.137Z,38.40
2023-02-05T13:47:25.636Z,42.78
2023-02-05T13:50:01.573Z,46.05
2023-02-05T13:52:56.202Z,40.08
2023-02-05T13:55:25.649Z,44.80
2023-02-05T13:58:08.851Z,44.45
2023-02-05T14:00:39.285Z,44.43
2023-02-05T14:03:08.530Z,39.42
2023-02-05T14:05:40.596Z,42.38
2023-02-05T14:08:22.010Z,35.03
2023-02-05T14:11:06.424Z,38.15
2023-02-05T14:13:34.567Z,37.00
2023-02-05T14:16:29.353Z,33.83
2023-02-05T14:19:21.707Z,29.70
2023-02-05T14:21:59.159Z,26.00
2023-02-05T14:24:39.122Z,25.90
2023-02-05T14:27:33.483Z,25.10
2023-02-05T14:30:29.397Z,21.50
2023-02-05T14:33:05.585Z,24.55
2023-02-05T14:35:40.021Z,25.85
2023-02-05T14:38:32.065Z,24.52
2023-02-05T14:41:19.789Z,18.55
2023-02-05T14:44:04.557Z,17.20
2023-02-05T14:46:41.238Z,10.48
2023-02-05T14:49:39.717Z,15.30
2023-02-05T14:52:16.480Z,19.23
2023-02-05T14:54:48.349Z,17.17
2023-02-05T14:57:23.584Z,17.23
2023-02-05T15:00:07.178Z,21.50
2023-02-05T15:03:07.257Z,23.40
2023-02-05T15:05:46.799Z,16.35
2023-02-05T15:08:38.000Z,17.38
2023-02-05T15:11:19.421Z,14.50
2023-02-05T15:14:20.316Z,12.75
2023-02-05T15:17:10.530Z,10.85
2023-02-05T15:19:49.303Z,8.35
2023-02-05T15:22:40.260Z,10.02
2023-02-05T15:25:35.958Z,11.07
2023-02-05T15:28:27.835Z,8.50
2023-02-05T15:31:10.072Z,6.05
2023-02-05T15:33:45.041Z,3.42
2023-02-05T15:36:31.623Z,4.80
2023-02-05T15:39:21.188Z,5.32
2023-02-05T15:41:50.805Z,4.72
2023-02-05T15:44:24.117Z,3.17
2023-02-05T15:46:54.309Z,4.38
2023-02-05T15:49:34.684Z,3.55
2023-02-05T15:52:02.384Z,3.58
2023-02-05T15:54:31.811Z,3.65
2023-02-05T15:56:58.896Z,3.78
2023-02-05T15:59:31.417Z,2.90
2023-02-05T16:02:21.713Z,3.40
2023-02-05T16:05:00.050Z,2.88
2023-02-05T16:07:30.325Z,4.55
2023-02-05T16:10:00.467Z,4.85
2023-02-05T16:12:31.324Z,4.13
2023-02-05T16:15:03.588Z,3.10
2023-02-05T16:17:44.841Z,3.17
2023-02-05T16:20:31.832Z,4.93
2023-02-05T16:23:07.946Z,3.10
2023-02-05T16:25:47.169Z,3.83
2023-02-05T16:28:22.307Z,4.88
2023-02-05T16:30:52.945Z,5.78
2023-02-05T16:33:34.622Z,9.05
2023-02-05T16:36:04.794Z,6.45
2023-02-05T16:38:35.360Z,14.77
2023-02-05T16:41:18.263Z,10.63
2023-02-05T16:43:45.111Z,10.40
2023-02-05T16:46:14.812Z,11.98
2023-02-05T16:48:47.295Z,12.68
2023-02-05T16:51:35.678Z,12.18
2023-02-05T16:54:11.469Z,16.27
2023-02-05T16:56:51.411Z,15.00
2023-02-05T16:59:29.095Z,14.77
2023-02-05T17:01:56.379Z,15.95
2023-02-05T17:04:33.864Z,16.88
2023-02-05T17:07:02.518Z,14.60
2023-02-05T17:09:34.642Z,20.20
2023-02-05T17:12:23.148Z,20.25
2023-02-05T17:15:00.220Z,20.88
2023-02-05T17:17:28.742Z,19.08
2023-02-05T17:20:20.850Z,21.75
2023-02-05T17:23:05.631Z,19.38
2023-02-05T17:25:35.876Z,22.95
2023-02-05T17:28:07.601Z,24.25
2023-02-05T17:30:34.746Z,23.58
2023-02-05T17:33:06.204Z,23.70
2023-02-05T17:35:33.893Z,27.45
2023-02-05T17:38:00.670Z,23.00
2023-02-05T17:40:27.775Z,26.45
2023-02-05T17:42:56.794Z,29.40
2023-02-05T17:45:31.052Z,27.63
2023-02-05T17:47:57.819Z,26.38
2023-02-05T17:50:24.674Z,31.25
2023-02-05T17:52:52.822Z,27.63
2023-02-05T17:55:21.320Z,27.58
2023-02-05T17:57:48.077Z,30.50
2023-02-05T18:00:16.837Z,30.42
2023-02-05T18:02:43.497Z,29.15
2023-02-05T18:05:13.574Z,27.13
2023-02-05T18:07:53.036Z,28.23
2023-02-05T18:10:23.574Z,30.60
2023-02-05T18:12:50.602Z,31.05
2023-02-05T18:15:17.603Z,24.85
2023-02-05T18:17:44.303Z,32.13
2023-02-05T18:20:16.859Z,31.23
2023-02-05T18:22:43.634Z,31.42
2023-02-05T18:25:10.367Z,30.35
2023-02-05T18:27:37.179Z,32.10
2023-02-05T18:30:05.041Z,29.20
2023-02-05T18:32:34.250Z,26.85
2023-02-05T18:35:01.001Z,31.13
2023-02-05T18:37:30.180Z,28.17
2023-02-05T18:39:59.296Z,29.08
2023-02-05T18:42:26.912Z,30.52
2023-02-05T18:44:53.564Z,27.27
2023-02-05T18:47:22.824Z,28.90
2023-02-05T18:49:49.515Z,30.75
2023-02-05T18:52:18.472Z,28.40
2023-02-05T18:54:45.854Z,25.15
2023-02-05T18:57:14.998Z,27.88
2023-02-05T18:59:45.140Z,24.00
2023-02-05T19:02:12.234Z,25.30
2023-02-05T19:04:42.962Z,25.65
2023-02-05T19:07:10.076Z,25.15
2023-02-05T19:09:39.307Z,27.60
2023-02-05T19:12:10.543Z,25.77
2023-02-05T19:14:37.295Z,22.90
2023-02-05T19:17:04.233Z,26.00
2023-02-05T19:19:31.238Z,23.92
2023-02-05T19:22:02.155Z,23.63
2023-02-05T19:24:29.277Z,25.88
2023-02-05T19:26:57.594Z,25.80
2023-02-05T19:29:25.930Z,28.40
2023-02-05T19:31:57.142Z,26.48
2023-02-05T19:34:24.436Z,25.90
2023-02-05T19:36:51.182Z,27.70
2023-02-05T19:39:20.427Z,24.33
2023-02-05T19:41:48.611Z,22.27
2023-02-05T19:44:15.587Z,22.42
2023-02-05T19:46:48.648Z,24.25
2023-02-05T19:49:18.518Z,22.65
2023-02-05T19:51:49.902Z,21.02
2023-02-05T19:54:18.516Z,25.48
2023-02-05T19:56:49.670Z,22.00
2023-02-05T19:59:18.844Z,20.52
2023-02-05T20:01:46.053Z,23.58
2023-02-05T20:04:17.461Z,23.40
2023-02-05T20:06:46.222Z,26.38
2023-02-05T20:09:14.504Z,26.05
2023-02-05T20:11:46.782Z,21.45
2023-02-05T20:14:14.928Z,26.23
2023-02-05T20:16:42.459Z,21.80
2023-02-05T20:19:16.896Z,21.02
2023-02-05T20:21:44.826Z,19.80
2023-02-05T20:24:12.577Z,20.13
2023-02-05T20:26:42.140Z,17.40
2023-02-05T20:29:29.098Z,22.38
2023-02-05T20:31:57.769Z,21.00
2023-02-05T20:34:30.676Z,18.92
2023-02-05T20:37:00.720Z,17.45
2023-02-05T20:39:29.822Z,18.60
2023-02-05T20:41:58.585Z,16.08
2023-02-05T20:44:29.392Z,18.92
2023-02-05T20:46:56.472Z,16.42
2023-02-05T20:49:25.477Z,14.00
2023-02-05T20:51:53.198Z,16.70
2023-02-05T20:54:20.912Z,16.15
2023-02-05T20:56:56.808Z,17.40
2023-02-05T20:59:23.647Z,15.48
2023-02-05T21:01:52.772Z,17.52
2023-02-05T21:04:20.467Z,17.88
2023-02-05T21:06:48.164Z,18.88
2023-02-05T21:09:15.873Z,16.65
2023-02-05T21:11:43.093Z,17.95
2023-02-05T21:14:10.012Z,18.25
2023-02-05T21:16:40.271Z,17.40
2023-02-05T21:19:08.579Z,20.10
2023-02-05T21:21:39.784Z,19.88
2023-02-05T21:24:11.206Z,19.38
2023-02-05T21:26:41.029Z,17.58
2023-02-05T21:29:10.837Z,18.45
2023-02-05T21:31:49.501Z,19.98
2023-02-05T21:34:19.146Z,17.55
2023-02-05T21:36:47.847Z,15.82
2023-02-05T21:39:20.063Z,18.92
2023-02-05T21:41:47.469Z,16.52
2023-02-05T21:44:16.848Z,20.10
2023-02-05T21:46:45.888Z,16.52
2023-02-05T21:49:12.621Z,18.63
2023-02-05T21:51:42.292Z,16.80
2023-02-05T21:54:13.884Z,15.77
2023-02-05T21:56:42.260Z,16.10
2023-02-05T21:59:12.296Z,18.33
2023-02-05T22:01:39.870Z,15.63
2023-02-05T22:04:15.513Z,15.88
2023-02-05T22:06:43.289Z,15.95
2023-02-05T22:09:14.482Z,19.27
2023-02-05T22:11:45.950Z,16.30
2023-02-05T22:14:13.011Z,16.90
2023-02-05T22:16:39.757Z,17.40
2023-02-05T22:19:07.113Z,17.33
2023-02-05T22:21:37.131Z,18.90
2023-02-05T22:24:04.898Z,21.20
2023-02-05T22:26:34.371Z,18.10
2023-02-05T22:29:05.255Z,18.38
2023-02-05T22:31:32.799Z,21.15
2023-02-05T22:33:59.760Z,18.63
2023-02-05T22:36:29.464Z,21.45
2023-02-05T22:39:01.722Z,19.92
2023-02-05T22:41:30.907Z,17.45
2023-02-05T22:43:59.045Z,19.10
2023-02-05T22:46:29.198Z,17.10
2023-02-05T22:48:59.109Z,19.45
2023-02-05T22:51:37.931Z,17.85
2023-02-05T22:54:08.273Z,18.10
2023-02-05T22:56:35.230Z,18.23
2023-02-05T22:59:03.416Z,16.58
2023-02-05T23:01:33.403Z,19.90
2023-02-05T23:04:05.252Z,19.90
2023-02-05T23:06:34.402Z,18.45
2023-02-05T23:09:06.205Z,19.00
2023-02-05T23:11:35.040Z,20.97
2023-02-05T23:14:02.868Z,16.95
2023-02-05T23:16:32.622Z,17.08
2023-02-05T23:19:01.912Z,15.93
2023-02-05T23:21:30.914Z,16.02
2023-02-05T23:24:00.461Z,21.40
2023-02-05T23:26:32.938Z,15.40
2023-02-05T23:29:02.378Z,16.88
2023-02-05T23:31:29.777Z,15.57
2023-02-05T23:33:56.639Z,16.17
2023-02-05T23:36:25.868Z,14.40
2023-02-05T23:38:52.515Z,15.20
2023-02-05T23:41:37.107Z,14.48
2023-02-05T23:44:09.482Z,14.63
2023-02-05T23:46:37.186Z,18.17
2023-02-05T23:49:05.199Z,17.42
2023-02-05T23:51:32.488Z,15.05
2023-02-05T23:53:59.315Z,16.48
2023-02-05T23:56:29.423Z,14.05
2023-02-05T23:59:01.203Z,16.70
